sensor_id;sensor_type;location;lat;lon;timestamp;pressure;altitude;pressure_sealevel;temperature;humidity
9035;BME280;4552;43.422;24.592;2023-09-30T00:59:44;100261.31;;;15.25;86.83
9035;BME280;4552;43.422;24.592;2023-09-30T01:02:11;100262.16;;;15.25;86.69
9035;BME280;4552;43.422;24.592;2023-09-30T01:04:38;100266.81;;;15.17;87.42
9035;BME280;4552;43.422;24.592;2023-09-30T01:07:06;100254.47;;;15.18;87.21
9035;BME280;4552;43.422;24.592;2023-09-30T01:16:23;100268.22;;;15.29;86.51
9035;BME280;4552;43.422;24.592;2023-09-30T01:18:50;100262.88;;;15.32;86.95
9035;BME280;4552;43.422;24.592;2023-09-30T01:21:18;100262.25;;;15.22;86.67
9035;BME280;4552;43.422;24.592;2023-09-30T01:43:59;100261.72;;;14.78;89.24
9035;BME280;4552;43.422;24.592;2023-09-30T01:46:26;100268.41;;;14.89;89.19
9035;BME280;4552;43.422;24.592;2023-09-30T01:48:52;100259.00;;;14.81;88.77
9035;BME280;4552;43.422;24.592;2023-09-30T01:51:19;100245.28;;;14.67;89.36
9035;BME280;4552;43.422;24.592;2023-09-30T01:53:47;100263.50;;;14.76;90.16
9035;BME280;4552;43.422;24.592;2023-09-30T01:56:14;100256.56;;;14.72;89.51
9035;BME280;4552;43.422;24.592;2023-09-30T01:58:41;100256.53;;;14.73;89.45
9035;BME280;4552;43.422;24.592;2023-09-30T02:01:10;100272.13;;;14.82;89.67
9035;BME280;4552;43.422;24.592;2023-09-30T02:03:37;100255.69;;;14.73;89.68
9035;BME280;4552;43.422;24.592;2023-09-30T02:06:04;100256.41;;;14.79;89.46
9035;BME280;4552;43.422;24.592;2023-09-30T02:15:15;100265.22;;;14.77;89.69
9035;BME280;4552;43.422;24.592;2023-09-30T02:17:43;100263.63;;;14.71;89.14
9035;BME280;4552;43.422;24.592;2023-09-30T02:20:12;100267.94;;;14.74;88.36
9035;BME280;4552;43.422;24.592;2023-09-30T02:22:44;100252.75;;;14.50;88.61
9035;BME280;4552;43.422;24.592;2023-09-30T02:28:34;100262.81;;;14.33;90.39
9035;BME280;4552;43.422;24.592;2023-09-30T02:31:02;100249.84;;;14.25;90.44
9035;BME280;4552;43.422;24.592;2023-09-30T02:33:30;100261.63;;;14.46;90.31
9035;BME280;4552;43.422;24.592;2023-09-30T02:35:57;100269.53;;;14.46;89.63
9035;BME280;4552;43.422;24.592;2023-09-30T03:15:25;100265.38;;;13.96;92.39
9035;BME280;4552;43.422;24.592;2023-09-30T03:17:52;100256.81;;;13.86;93.07
9035;BME280;4552;43.422;24.592;2023-09-30T03:20:21;100271.53;;;13.97;93.16
9035;BME280;4552;43.422;24.592;2023-09-30T03:22:50;100267.72;;;14.10;92.37
9035;BME280;4552;43.422;24.592;2023-09-30T03:28:39;100265.59;;;13.87;93.09
9035;BME280;4552;43.422;24.592;2023-09-30T03:31:08;100278.84;;;13.82;93.55
9035;BME280;4552;43.422;24.592;2023-09-30T03:33:37;100264.06;;;13.75;93.76
9035;BME280;4552;43.422;24.592;2023-09-30T03:36:08;100265.00;;;13.73;94.17
9035;BME280;4552;43.422;24.592;2023-09-30T03:45:11;100280.88;;;13.70;94.28
9035;BME280;4552;43.422;24.592;2023-09-30T03:47:41;100274.66;;;13.72;93.75
9035;BME280;4552;43.422;24.592;2023-09-30T03:50:09;100280.69;;;13.77;93.79
9035;BME280;4552;43.422;24.592;2023-09-30T03:52:40;100286.16;;;13.68;94.13
9035;BME280;4552;43.422;24.592;2023-09-30T04:05:16;100277.69;;;13.54;95.90
9035;BME280;4552;43.422;24.592;2023-09-30T04:07:44;100280.25;;;13.57;95.39
9035;BME280;4552;43.422;24.592;2023-09-30T04:10:12;100283.94;;;13.49;96.89
9035;BME280;4552;43.422;24.592;2023-09-30T04:12:38;100269.22;;;13.39;96.83
9035;BME280;4552;43.422;24.592;2023-09-30T04:15:06;100283.81;;;13.55;96.70
9035;BME280;4552;43.422;24.592;2023-09-30T04:17:37;100279.47;;;13.54;96.63
9035;BME280;4552;43.422;24.592;2023-09-30T04:20:05;100275.53;;;13.30;96.23
9035;BME280;4552;43.422;24.592;2023-09-30T04:22:37;100288.25;;;13.51;95.46
9035;BME280;4552;43.422;24.592;2023-09-30T04:25:05;100277.81;;;13.48;95.37
9035;BME280;4552;43.422;24.592;2023-09-30T04:27:34;100270.81;;;13.47;95.78
9035;BME280;4552;43.422;24.592;2023-09-30T04:30:03;100291.56;;;13.62;94.88
9035;BME280;4552;43.422;24.592;2023-09-30T04:32:35;100293.34;;;13.60;94.69
9035;BME280;4552;43.422;24.592;2023-09-30T04:35:02;100290.06;;;13.49;95.56
9035;BME280;4552;43.422;24.592;2023-09-30T04:37:29;100307.44;;;13.56;95.98
9035;BME280;4552;43.422;24.592;2023-09-30T04:39:58;100283.06;;;13.48;95.42
9035;BME280;4552;43.422;24.592;2023-09-30T04:42:25;100319.69;;;13.57;95.28
9035;BME280;4552;43.422;24.592;2023-09-30T04:44:52;100299.03;;;13.39;95.66
9035;BME280;4552;43.422;24.592;2023-09-30T04:47:22;100300.31;;;13.63;96.05
9035;BME280;4552;43.422;24.592;2023-09-30T04:49:49;100294.84;;;13.73;94.60
9035;BME280;4552;43.422;24.592;2023-09-30T04:52:17;100317.56;;;13.76;95.22
9035;BME280;4552;43.422;24.592;2023-09-30T05:01:29;100331.59;;;13.76;94.96
9035;BME280;4552;43.422;24.592;2023-09-30T05:03:56;100340.00;;;13.95;94.96
9035;BME280;4552;43.422;24.592;2023-09-30T05:06:23;100315.31;;;13.99;94.65
9035;BME280;4552;43.422;24.592;2023-09-30T05:18:48;100352.91;;;14.83;90.81
9035;BME280;4552;43.422;24.592;2023-09-30T05:21:15;100342.09;;;14.94;90.20
9035;BME280;4552;43.422;24.592;2023-09-30T05:23:42;100342.44;;;15.15;90.83
9035;BME280;4552;43.422;24.592;2023-09-30T05:26:09;100350.97;;;15.25;88.61
9035;BME280;4552;43.422;24.592;2023-09-30T05:28:36;100348.72;;;15.45;88.00
9035;BME280;4552;43.422;24.592;2023-09-30T05:31:05;100354.88;;;15.44;89.30
9035;BME280;4552;43.422;24.592;2023-09-30T05:33:33;100354.75;;;15.48;89.70
9035;BME280;4552;43.422;24.592;2023-09-30T05:36:03;100368.28;;;15.69;89.46
9035;BME280;4552;43.422;24.592;2023-09-30T05:38:30;100364.78;;;15.68;90.19
9035;BME280;4552;43.422;24.592;2023-09-30T05:47:53;100382.13;;;16.38;86.56
9035;BME280;4552;43.422;24.592;2023-09-30T05:50:21;100385.28;;;16.50;84.42
9035;BME280;4552;43.422;24.592;2023-09-30T05:52:55;100363.22;;;16.51;85.13
9035;BME280;4552;43.422;24.592;2023-09-30T06:02:06;100393.06;;;17.10;82.29
9035;BME280;4552;43.422;24.592;2023-09-30T06:04:33;100379.38;;;17.23;80.57
9035;BME280;4552;43.422;24.592;2023-09-30T06:07:00;100364.19;;;17.28;79.93
9035;BME280;4552;43.422;24.592;2023-09-30T06:16:12;100373.94;;;18.25;74.33
9035;BME280;4552;43.422;24.592;2023-09-30T06:18:39;100385.81;;;18.39;73.09
9035;BME280;4552;43.422;24.592;2023-09-30T06:21:06;100387.81;;;18.56;73.07
9035;BME280;4552;43.422;24.592;2023-09-30T06:23:35;100373.88;;;18.72;71.48
9035;BME280;4552;43.422;24.592;2023-09-30T07:03:04;100403.50;;;19.48;64.50
9035;BME280;4552;43.422;24.592;2023-09-30T07:05:31;100381.91;;;18.92;66.08
9035;BME280;4552;43.422;24.592;2023-09-30T07:07:58;100406.09;;;19.07;66.32
9035;BME280;4552;43.422;24.592;2023-09-30T08:00:54;100419.91;;;21.46;53.23
9035;BME280;4552;43.422;24.592;2023-09-30T08:03:21;100429.88;;;21.60;52.85
9035;BME280;4552;43.422;24.592;2023-09-30T08:05:47;100427.44;;;21.72;52.17
9035;BME280;4552;43.422;24.592;2023-09-30T08:08:16;100419.25;;;21.77;51.30
9035;BME280;4552;43.422;24.592;2023-09-30T09:48:17;100369.91;;;24.44;40.84
9035;BME280;4552;43.422;24.592;2023-09-30T09:50:44;100381.16;;;24.63;39.98
9035;BME280;4552;43.422;24.592;2023-09-30T09:53:13;100380.78;;;24.69;40.77
9035;BME280;4552;43.422;24.592;2023-09-30T10:29:20;100346.63;;;25.52;37.63
9035;BME280;4552;43.422;24.592;2023-09-30T10:34:50;100345.13;;;25.73;37.29
9035;BME280;4552;43.422;24.592;2023-09-30T10:37:21;100341.06;;;25.93;37.04
9035;BME280;4552;43.422;24.592;2023-09-30T10:46:36;100314.38;;;26.52;35.13
9035;BME280;4552;43.422;24.592;2023-09-30T10:49:31;100307.78;;;26.33;35.81
9035;BME280;4552;43.422;24.592;2023-09-30T10:51:59;100305.09;;;26.56;35.99
9035;BME280;4552;43.422;24.592;2023-09-30T11:07:57;100282.78;;;26.68;33.84
9035;BME280;4552;43.422;24.592;2023-09-30T11:10:26;100274.19;;;26.51;32.68
9035;BME280;4552;43.422;24.592;2023-09-30T11:12:54;100265.28;;;26.50;32.70
9035;BME280;4552;43.422;24.592;2023-09-30T11:15:22;100264.78;;;26.45;32.45
9035;BME280;4552;43.422;24.592;2023-09-30T11:17:49;100247.97;;;26.54;32.31
9035;BME280;4552;43.422;24.592;2023-09-30T11:20:16;100257.44;;;26.47;32.00
9035;BME280;4552;43.422;24.592;2023-09-30T11:22:43;100267.69;;;26.42;32.53
9035;BME280;4552;43.422;24.592;2023-09-30T15:30:52;100103.25;;;26.73;30.81
9035;BME280;4552;43.422;24.592;2023-09-30T15:33:19;100101.31;;;26.75;30.69
9035;BME280;4552;43.422;24.592;2023-09-30T15:35:46;100121.34;;;26.71;32.06
9035;BME280;4552;43.422;24.592;2023-09-30T15:38:12;100090.53;;;26.64;31.18
9035;BME280;4552;43.422;24.592;2023-09-30T15:40:50;100103.66;;;26.45;31.18
9035;BME280;4552;43.422;24.592;2023-09-30T15:43:18;100108.09;;;26.34;32.15
9035;BME280;4552;43.422;24.592;2023-09-30T15:45:45;100120.41;;;26.25;34.20
9035;BME280;4552;43.422;24.592;2023-09-30T15:48:14;100125.88;;;26.24;34.31
9035;BME280;4552;43.422;24.592;2023-09-30T15:50:41;100120.41;;;25.89;35.82
9035;BME280;4552;43.422;24.592;2023-09-30T15:53:08;100122.38;;;25.75;36.13
9035;BME280;4552;43.422;24.592;2023-09-30T15:55:35;100113.25;;;25.41;37.42
9035;BME280;4552;43.422;24.592;2023-09-30T15:58:03;100113.44;;;25.25;37.21
9035;BME280;4552;43.422;24.592;2023-09-30T16:00:30;100100.56;;;24.93;36.91
9035;BME280;4552;43.422;24.592;2023-09-30T16:03:02;100103.25;;;24.93;36.89
9035;BME280;4552;43.422;24.592;2023-09-30T16:05:32;100117.19;;;24.73;38.10
9035;BME280;4552;43.422;24.592;2023-09-30T16:08:02;100113.81;;;24.57;38.57
9035;BME280;4552;43.422;24.592;2023-09-30T16:10:29;100111.19;;;24.43;37.96
9035;BME280;4552;43.422;24.592;2023-09-30T16:12:56;100104.31;;;24.26;38.84
9035;BME280;4552;43.422;24.592;2023-09-30T16:15:23;100107.09;;;24.25;37.85
9035;BME280;4552;43.422;24.592;2023-09-30T16:17:51;100118.03;;;24.08;38.33
9035;BME280;4552;43.422;24.592;2023-09-30T16:20:18;100115.97;;;23.99;38.23
9035;BME280;4552;43.422;24.592;2023-09-30T16:22:50;100110.84;;;23.81;38.39
9035;BME280;4552;43.422;24.592;2023-09-30T16:25:17;100106.41;;;23.54;39.01
9035;BME280;4552;43.422;24.592;2023-09-30T16:27:44;100106.06;;;23.46;39.00
9035;BME280;4552;43.422;24.592;2023-09-30T16:30:14;100121.22;;;23.45;39.12
9035;BME280;4552;43.422;24.592;2023-09-30T17:18:00;100123.47;;;23.23;40.77
9035;BME280;4552;43.422;24.592;2023-09-30T17:20:29;100122.91;;;23.04;41.22
9035;BME280;4552;43.422;24.592;2023-09-30T17:22:55;100125.47;;;22.92;41.22
9035;BME280;4552;43.422;24.592;2023-09-30T17:25:22;100119.16;;;22.79;41.49
9035;BME280;4552;43.422;24.592;2023-09-30T17:27:51;100114.44;;;22.54;42.27
9035;BME280;4552;43.422;24.592;2023-09-30T17:30:18;100128.28;;;22.45;42.88
9035;BME280;4552;43.422;24.592;2023-09-30T17:32:45;100111.78;;;22.39;43.02
9035;BME280;4552;43.422;24.592;2023-09-30T17:35:14;100111.94;;;22.06;45.97
9035;BME280;4552;43.422;24.592;2023-09-30T17:37:43;100114.13;;;21.84;45.68
9035;BME280;4552;43.422;24.592;2023-09-30T17:40:11;100105.13;;;21.69;46.06
9035;BME280;4552;43.422;24.592;2023-09-30T17:42:38;100118.97;;;21.60;46.72
9035;BME280;4552;43.422;24.592;2023-09-30T17:45:06;100116.91;;;21.50;46.65
9035;BME280;4552;43.422;24.592;2023-09-30T17:47:35;100107.53;;;21.43;48.33
9035;BME280;4552;43.422;24.592;2023-09-30T17:50:03;100100.63;;;21.23;47.01
9035;BME280;4552;43.422;24.592;2023-09-30T17:52:32;100113.97;;;21.39;46.64
9035;BME280;4552;43.422;24.592;2023-09-30T18:18:34;100105.56;;;20.81;50.62
9035;BME280;4552;43.422;24.592;2023-09-30T18:21:01;100093.91;;;20.67;52.13
9035;BME280;4552;43.422;24.592;2023-09-30T18:23:28;100107.06;;;20.70;51.86
9035;BME280;4552;43.422;24.592;2023-09-30T18:25:55;100105.66;;;20.63;52.51
9035;BME280;4552;43.422;24.592;2023-09-30T18:28:22;100089.16;;;20.56;52.42
9035;BME280;4552;43.422;24.592;2023-09-30T18:30:54;100096.72;;;20.81;52.23
9035;BME280;4552;43.422;24.592;2023-09-30T18:33:24;100098.81;;;20.74;52.52
9035;BME280;4552;43.422;24.592;2023-09-30T18:35:57;100092.91;;;20.52;54.02
9035;BME280;4552;43.422;24.592;2023-09-30T18:38:24;100086.41;;;20.40;54.25
9035;BME280;4552;43.422;24.592;2023-09-30T20:48:14;100125.91;;;17.78;66.92
9035;BME280;4552;43.422;24.592;2023-09-30T20:54:18;100116.38;;;18.17;64.62
9035;BME280;4552;43.422;24.592;2023-09-30T21:00:08;100112.25;;;18.71;59.35
9035;BME280;4552;43.422;24.592;2023-09-30T21:03:14;100120.81;;;18.78;60.55
9035;BME280;4552;43.422;24.592;2023-09-30T21:05:47;100109.38;;;18.76;60.66
9035;BME280;4552;43.422;24.592;2023-09-30T21:11:19;100104.09;;;18.56;61.32
9035;BME280;4552;43.422;24.592;2023-09-30T21:13:46;100120.28;;;18.70;62.46
9035;BME280;4552;43.422;24.592;2023-09-30T21:17:01;100119.13;;;18.75;62.08
9035;BME280;4552;43.422;24.592;2023-09-30T21:28:00;100102.44;;;18.53;64.59
9035;BME280;4552;43.422;24.592;2023-09-30T21:30:45;100101.91;;;18.65;63.96
9035;BME280;4552;43.422;24.592;2023-09-30T21:33:15;100098.13;;;18.51;64.34
9035;BME280;4552;43.422;24.592;2023-09-30T21:36:07;100092.69;;;18.54;64.18
9035;BME280;4552;43.422;24.592;2023-09-30T23:22:57;100127.72;;;19.76;54.62
9035;BME280;4552;43.422;24.592;2023-09-30T23:25:26;100127.13;;;19.88;54.18
9035;BME280;4552;43.422;24.592;2023-09-30T23:27:53;100126.88;;;19.76;54.49
9035;BME280;4552;43.422;24.592;2023-09-30T23:30:21;100114.34;;;19.78;54.27
9035;BME280;4552;43.422;24.592;2023-09-30T23:32:49;100131.69;;;19.86;54.19
9035;BME280;4552;43.422;24.592;2023-09-30T23:35:19;100127.56;;;19.79;54.32
9035;BME280;4552;43.422;24.592;2023-09-30T23:37:51;100124.28;;;19.74;54.32
9035;BME280;4552;43.422;24.592;2023-09-30T23:40:20;100127.72;;;19.76;54.62
9035;BME280;4552;43.422;24.592;2023-09-30T23:42:48;100124.59;;;19.68;54.44
9035;BME280;4552;43.422;24.592;2023-09-30T23:45:19;100127.31;;;19.67;54.39
9035;BME280;4552;43.422;24.592;2023-09-30T23:47:46;100093.84;;;19.63;54.93
9035;BME280;4552;43.422;24.592;2023-09-30T23:50:15;100119.44;;;19.82;54.57
9035;BME280;4552;43.422;24.592;2023-09-30T23:52:42;100112.50;;;19.80;54.31
9035;BME280;4552;43.422;24.592;2023-09-30T23:55:10;100124.97;;;19.96;53.96
